Time;durP1;ratioP1;P1;durP2;ratioP2;P2;SDS_P1;SDS_P2;PMS_P1;PMS_P2;Temp;Humidity;BMP_temperature;BMP_pressure;BME280_temperature;BME280_humidity;BME280_pressure;Samples;Min_cycle;Max_cycle;Signal;HPM_P1;HPM_P2
2023/07/23 00:01:12;;;;;;;5.00;3.90;;;;;;;21.42;63.28;98915.70;79212;1301;3020645;-70
2023/07/23 00:03:39;;;;;;;8.50;4.10;;;;;;;21.40;64.66;98915.14;79231;1301;3013271;-67
2023/07/23 00:06:07;;;;;;;7.40;4.10;;;;;;;21.39;65.58;98918.85;78094;1300;3028974;-67
2023/07/23 00:08:33;;;;;;;6.30;4.00;;;;;;;21.37;66.41;98911.95;79244;1298;3013139;-70
2023/07/23 00:11:00;;;;;;;5.30;3.60;;;;;;;21.34;66.60;98908.27;79291;1301;3012923;-68
2023/07/23 00:13:28;;;;;;;4.10;2.30;;;;;;;21.36;66.99;98903.80;77962;1301;3028345;-74
2023/07/23 00:15:54;;;;;;;7.50;3.10;;;;;;;21.85;67.04;98902.89;79321;1301;3013844;-69
2023/07/23 00:18:20;;;;;;;7.60;3.50;;;;;;;22.42;65.60;98907.11;79229;1301;3011690;-65
2023/07/23 00:20:48;;;;;;;5.30;3.10;;;;;;;22.59;64.79;98907.83;78017;1301;3028248;-62
2023/07/23 00:23:15;;;;;;;4.90;3.70;;;;;;;22.38;65.49;98902.23;79260;1298;3013829;-68
2023/07/23 00:25:42;;;;;;;7.40;3.70;;;;;;;22.15;66.19;98898.88;79367;1301;3013006;-66
2023/07/23 00:28:10;;;;;;;9.20;4.00;;;;;;;21.98;66.67;98890.18;78075;1301;3026617;-73
2023/07/23 00:30:36;;;;;;;7.50;4.00;;;;;;;21.84;66.91;98883.98;79257;1301;3021223;-69
2023/07/23 00:33:03;;;;;;;9.80;3.70;;;;;;;21.75;66.73;98877.34;79238;1297;3011641;-64
2023/07/23 00:35:31;;;;;;;5.60;3.80;;;;;;;21.63;67.48;98877.00;78022;1299;3026190;-69
2023/07/23 00:37:58;;;;;;;5.30;3.60;;;;;;;21.53;67.87;98873.54;79179;1298;3013290;-71
2023/07/23 00:40:25;;;;;;;8.20;3.20;;;;;;;21.38;68.95;98875.68;79338;1296;3011516;-70
2023/07/23 00:42:52;;;;;;;5.60;3.40;;;;;;;21.30;69.34;98878.21;78243;1301;3049693;-72
2023/07/23 00:45:19;;;;;;;6.20;3.20;;;;;;;21.21;69.84;98878.89;79512;1301;3013585;-74
2023/07/23 00:47:46;;;;;;;5.90;2.50;;;;;;;21.17;70.44;98877.04;79177;1299;3011653;-68
2023/07/23 00:50:14;;;;;;;5.60;2.30;;;;;;;21.69;69.43;98876.62;78066;1301;3026133;-73
2023/07/23 00:52:40;;;;;;;7.90;3.00;;;;;;;22.18;68.14;98873.20;79048;1298;3013327;-68
2023/07/23 00:55:07;;;;;;;7.30;3.70;;;;;;;22.18;67.78;98878.19;79072;1302;3011794;-74
2023/07/23 00:57:36;;;;;;;5.20;3.50;;;;;;;22.05;68.31;98880.09;77984;1299;3049329;-74
2023/07/23 01:00:05;;;;;;;8.00;3.40;;;;;;;21.89;68.48;98880.04;79222;1301;3013680;-73
2023/07/23 01:02:34;;;;;;;13.70;3.90;;;;;;;21.72;68.96;98881.23;78027;1301;3070610;-66
2023/07/23 01:05:02;;;;;;;6.50;3.60;;;;;;;21.49;70.45;98880.36;79385;1298;3013312;-69
2023/07/23 01:07:29;;;;;;;8.40;3.40;;;;;;;21.29;71.15;98874.30;79257;1298;3011874;-68
2023/07/23 01:09:57;;;;;;;10.60;3.90;;;;;;;21.11;71.95;98873.44;78017;1301;3054051;-66
2023/07/23 01:12:24;;;;;;;6.40;3.60;;;;;;;21.01;71.77;98874.94;79141;1303;3013176;-68
2023/07/23 01:14:50;;;;;;;5.00;2.70;;;;;;;20.90;72.74;98874.35;79816;1298;3012026;-63
2023/07/23 01:17:18;;;;;;;4.60;2.90;;;;;;;21.37;72.14;98872.84;78224;1298;3025518;-67
2023/07/23 01:19:46;;;;;;;4.90;3.30;;;;;;;21.89;70.07;98869.10;79029;1298;3019130;-67
2023/07/23 01:22:12;;;;;;;6.60;3.50;;;;;;;22.00;69.29;98869.88;79116;1299;3011708;-69
2023/07/23 01:24:40;;;;;;;6.90;3.70;;;;;;;21.83;69.58;98870.85;77933;1304;3054337;-76
2023/07/23 01:27:07;;;;;;;5.30;3.80;;;;;;;21.59;70.67;98867.56;79229;1302;3013474;-64
2023/07/23 01:29:34;;;;;;;8.50;4.10;;;;;;;21.38;71.22;98872.33;79182;1301;3013728;-64
2023/07/23 01:32:01;;;;;;;8.70;4.00;;;;;;;21.19;71.86;98871.63;78044;1301;3025920;-68
2023/07/23 01:34:28;;;;;;;7.70;3.80;;;;;;;21.02;72.86;98872.00;79184;1301;3014001;-68
2023/07/23 01:36:55;;;;;;;7.20;3.50;;;;;;;20.89;73.29;98880.40;79114;1303;3011588;-69
2023/07/23 01:39:23;;;;;;;6.40;3.00;;;;;;;20.79;73.64;98887.02;77793;1303;3028938;-68
2023/07/23 01:41:49;;;;;;;5.30;3.00;;;;;;;21.25;72.92;98880.94;79195;1302;3013548;-65
2023/07/23 01:44:16;;;;;;;6.70;3.80;;;;;;;21.79;71.05;98882.42;79158;1305;3011774;-70
2023/07/23 01:46:43;;;;;;;12.30;3.80;;;;;;;21.80;70.42;98880.52;77976;1304;3026782;-67
2023/07/23 01:49:10;;;;;;;10.30;3.80;;;;;;;21.73;70.34;98883.35;79214;1298;3013489;-64
2023/07/23 01:51:36;;;;;;;11.50;4.40;;;;;;;21.56;70.71;98886.33;79351;1298;3012619;-69
2023/07/23 01:54:04;;;;;;;7.30;4.10;;;;;;;21.34;71.25;98885.76;78073;1301;3026593;-68
2023/07/23 01:56:31;;;;;;;6.30;4.50;;;;;;;21.21;71.25;98878.06;79370;1301;3013006;-65
2023/07/23 01:58:57;;;;;;;9.20;4.30;;;;;;;21.06;72.11;98878.27;79127;1302;3011608;-71
2023/07/23 02:01:25;;;;;;;10.40;4.60;;;;;;;20.88;72.95;98878.20;77982;1305;3028213;-62
2023/07/23 02:03:52;;;;;;;7.30;3.60;;;;;;;20.75;74.03;98888.17;79201;1303;3013007;-67
2023/07/23 02:06:19;;;;;;;7.30;3.70;;;;;;;21.13;73.55;98886.04;79336;1301;3011457;-67
2023/07/23 02:08:46;;;;;;;7.80;4.30;;;;;;;21.63;71.67;98881.98;78258;1301;3028468;-67
2023/07/23 02:11:13;;;;;;;7.80;4.20;;;;;;;21.61;71.48;98878.32;79211;1303;3013057;-74
2023/07/23 02:13:39;;;;;;;8.80;4.00;;;;;;;21.45;72.01;98883.33;79388;1301;3013980;-72
2023/07/23 02:16:15;;;;;;;8.90;5.10;;;;;;;21.16;73.48;98886.45;78127;1298;3028541;-72
2023/07/23 02:18:43;;;;;;;9.10;4.70;;;;;;;20.93;74.75;98882.32;77975;1297;3051785;-70
2023/07/23 02:21:09;;;;;;;7.40;4.40;;;;;;;20.79;75.28;98882.98;79357;1298;3013536;-74
2023/07/23 02:23:36;;;;;;;7.30;3.80;;;;;;;20.68;76.01;98883.27;79267;1305;3011455;-66
2023/07/23 02:26:04;;;;;;;6.50;3.30;;;;;;;21.10;74.81;98878.09;78137;1299;3026218;-63
2023/07/23 02:28:30;;;;;;;9.30;4.40;;;;;;;21.54;72.91;98880.34;79384;1300;3013623;-69
2023/07/23 02:30:58;;;;;;;5.60;4.50;;;;;;;21.53;72.53;98879.49;79379;1308;3011594;-67
2023/07/23 02:33:26;;;;;;;13.90;4.60;;;;;;;21.39;73.00;98882.19;78125;1300;3051072;-67
2023/07/23 02:35:52;;;;;;;11.00;4.80;;;;;;;21.18;73.56;98876.20;79464;1300;3018992;-73
2023/07/23 02:38:19;;;;;;;9.70;4.70;;;;;;;21.01;74.50;98871.27;79446;1301;3011706;-70
2023/07/23 02:40:47;;;;;;;8.10;4.60;;;;;;;20.85;75.06;98874.80;78165;1300;3026058;-71
2023/07/23 02:43:14;;;;;;;7.70;4.30;;;;;;;20.72;75.71;98875.70;79411;1301;3013825;-72
2023/07/23 02:45:40;;;;;;;7.80;3.50;;;;;;;20.64;76.39;98875.89;79343;1301;3013258;-67
2023/07/23 02:48:08;;;;;;;6.60;3.40;;;;;;;21.11;75.20;98870.83;78209;1296;3050250;-71
2023/07/23 02:50:35;;;;;;;7.80;4.00;;;;;;;21.58;73.55;98870.45;79394;1299;3012938;-70
2023/07/23 02:53:01;;;;;;;11.50;4.70;;;;;;;21.62;72.75;98874.80;79245;1301;3011941;-66
2023/07/23 02:55:29;;;;;;;7.70;4.10;;;;;;;21.53;72.89;98877.07;78239;1300;3028288;-65
2023/07/23 02:57:56;;;;;;;12.40;4.60;;;;;;;21.35;73.52;98883.52;79219;1302;3019792;-67
2023/07/23 03:00:22;;;;;;;5.70;4.30;;;;;;;21.18;74.12;98883.48;79198;1302;3011515;-68
2023/07/23 03:02:50;;;;;;;13.20;4.80;;;;;;;21.03;74.66;98880.77;78118;1301;3025898;-67
2023/07/23 03:05:17;;;;;;;6.50;4.60;;;;;;;20.87;75.80;98884.88;79413;1298;3013074;-65
2023/07/23 03:07:43;;;;;;;9.50;3.30;;;;;;;20.76;76.19;98895.94;79207;1296;3011958;-68
2023/07/23 03:10:11;;;;;;;8.40;3.70;;;;;;;21.20;75.19;98893.98;78117;1301;3028449;-66
2023/07/23 03:12:38;;;;;;;7.30;3.90;;;;;;;21.51;73.57;98889.39;79470;1300;3018803;-72
2023/07/23 03:15:05;;;;;;;9.30;4.30;;;;;;;21.53;73.35;98890.02;79391;1301;3011512;-67
2023/07/23 03:17:33;;;;;;;10.70;4.90;;;;;;;21.38;73.53;98888.54;78283;1301;3051503;-69
2023/07/23 03:20:00;;;;;;;7.90;4.90;;;;;;;21.15;74.58;98883.13;79172;1302;3013166;-67
2023/07/23 03:22:26;;;;;;;8.50;4.50;;;;;;;20.95;75.46;98875.23;79433;1307;3012546;-66
2023/07/23 03:24:54;;;;;;;6.00;4.60;;;;;;;20.87;76.01;98882.27;78010;1301;3025868;-75
2023/07/23 03:27:20;;;;;;;10.80;4.30;;;;;;;20.76;76.83;98886.66;79241;1301;3018395;-63
2023/07/23 03:29:47;;;;;;;7.90;4.30;;;;;;;21.14;75.36;98883.27;79264;1301;3011407;-64
2023/07/23 03:32:15;;;;;;;6.80;4.30;;;;;;;21.52;73.79;98883.61;78059;1302;3026112;-61
2023/07/23 03:34:41;;;;;;;8.20;4.10;;;;;;;21.47;73.71;98884.68;79226;1298;3013239;-72
2023/07/23 03:37:08;;;;;;;10.90;5.30;;;;;;;21.30;74.43;98884.42;79327;1303;3011824;-69
2023/07/23 03:39:36;;;;;;;8.60;4.70;;;;;;;21.12;75.18;98884.68;78067;1300;3026213;-66
2023/07/23 03:42:02;;;;;;;17.70;5.10;;;;;;;21.00;75.77;98883.75;79375;1302;3013703;-70
2023/07/23 03:44:29;;;;;;;9.00;5.30;;;;;;;20.79;76.38;98890.39;79356;1301;3011429;-66
2023/07/23 03:47:04;;;;;;;7.70;3.70;;;;;;;20.89;75.88;98894.88;78015;1301;3027267;-61
2023/07/23 03:49:33;;;;;;;6.40;4.00;;;;;;;21.51;74.20;98893.27;78747;1301;3012216;-66
2023/07/23 03:52:01;;;;;;;10.70;4.90;;;;;;;21.73;72.98;98888.42;79244;1301;3013771;-69
2023/07/23 03:54:27;;;;;;;10.20;5.40;;;;;;;21.59;73.01;98889.50;79205;1296;3013396;-65
2023/07/23 03:56:56;;;;;;;13.10;6.00;;;;;;;21.51;73.54;98894.42;78012;1300;3050177;-67
2023/07/23 03:59:28;;;;;;;15.40;6.10;;;;;;;21.47;73.70;98896.04;79219;1301;3013137;-64
2023/07/23 04:01:56;;;;;;;13.50;6.00;;;;;;;21.35;74.13;98891.73;78200;1296;3069226;-66
2023/07/23 04:04:23;;;;;;;8.00;5.30;;;;;;;21.21;74.78;98890.77;79527;1301;3018662;-69
2023/07/23 04:06:49;;;;;;;11.00;4.80;;;;;;;21.08;75.74;98889.81;79435;1301;3011664;-72
2023/07/23 04:09:17;;;;;;;8.30;5.30;;;;;;;21.68;74.22;98885.34;78157;1296;3026720;-69
2023/07/23 04:11:44;;;;;;;8.40;5.20;;;;;;;22.20;71.40;98883.90;79418;1301;3013551;-65
2023/07/23 04:14:10;;;;;;;10.40;6.00;;;;;;;21.95;71.67;98886.06;79668;1301;3011621;-66
2023/07/23 04:16:38;;;;;;;11.40;5.50;;;;;;;21.87;71.99;98887.03;78082;1300;3026686;-68
2023/07/23 04:19:05;;;;;;;9.40;5.60;;;;;;;21.77;71.77;98892.56;79265;1298;3012890;-64
2023/07/23 04:21:32;;;;;;;14.90;6.20;;;;;;;21.71;71.76;98893.70;79304;1298;3011842;-67
2023/07/23 04:24:00;;;;;;;9.80;6.00;;;;;;;21.49;72.59;98890.97;77936;1301;3054707;-71
2023/07/23 04:26:28;;;;;;;12.30;6.30;;;;;;;21.40;72.73;98885.33;79352;1312;3013507;-70
2023/07/23 04:28:54;;;;;;;10.20;5.40;;;;;;;21.44;72.35;98897.95;79142;1301;3013287;-70
2023/07/23 04:31:22;;;;;;;13.50;5.60;;;;;;;21.96;71.18;98894.64;78055;1298;3025766;-69
2023/07/23 04:33:49;;;;;;;13.30;5.80;;;;;;;22.23;69.53;98895.34;79408;1300;3012812;-70
2023/07/23 04:36:16;;;;;;;9.50;7.00;;;;;;;22.30;68.78;98896.58;79350;1301;3011688;-66
2023/07/23 04:38:44;;;;;;;14.70;6.70;;;;;;;22.21;68.41;98899.96;77934;1296;3026482;-64
2023/07/23 04:41:10;;;;;;;16.20;7.30;;;;;;;22.06;69.20;98901.75;79460;1300;3018714;-69
2023/07/23 04:43:38;;;;;;;13.00;8.20;;;;;;;21.97;69.11;98901.29;79300;1301;3011497;-68
2023/07/23 04:46:06;;;;;;;17.10;8.40;;;;;;;21.91;69.34;98904.05;78054;1301;3069621;-64
2023/07/23 04:48:33;;;;;;;12.90;8.70;;;;;;;21.72;69.91;98905.37;79497;1300;3013833;-66
2023/07/23 04:51:04;;;;;;;13.50;9.60;;;;;;;21.66;69.83;98905.44;79376;1301;3011471;-65
2023/07/23 04:53:32;;;;;;;15.90;9.90;;;;;;;21.59;69.83;98903.42;78032;1298;3053233;-62
2023/07/23 04:56:00;;;;;;;17.40;9.70;;;;;;;21.61;69.92;98900.17;79311;1309;3013766;-73
2023/07/23 04:58:26;;;;;;;14.60;7.90;;;;;;;21.64;69.84;98896.34;79351;1301;3011674;-70
2023/07/23 05:00:54;;;;;;;15.50;7.80;;;;;;;22.14;68.45;98900.55;78029;1297;3069165;-67
2023/07/23 05:03:20;;;;;;;18.00;9.00;;;;;;;22.49;66.18;98897.64;79361;1296;3012979;-68
2023/07/23 05:05:51;;;;;;;27.10;9.70;;;;;;;22.45;64.52;98900.34;79405;1300;3011668;-68
2023/07/23 05:08:19;;;;;;;19.50;9.50;;;;;;;22.36;64.22;98895.44;78156;1299;3052907;-71
2023/07/23 05:10:46;;;;;;;26.80;11.10;;;;;;;22.26;64.26;98898.31;79353;1298;3013387;-66
2023/07/23 05:13:12;;;;;;;24.10;11.20;;;;;;;22.14;64.59;98898.45;79288;1301;3011878;-64
2023/07/23 05:15:41;;;;;;;22.30;10.10;;;;;;;22.07;64.50;98896.55;78176;1295;3025787;-68
2023/07/23 05:18:08;;;;;;;19.80;10.20;;;;;;;21.93;64.97;98895.44;79358;1299;3013266;-67
2023/07/23 05:20:35;;;;;;;19.60;10.20;;;;;;;21.78;65.04;98894.17;79187;1295;3012005;-68
2023/07/23 05:23:02;;;;;;;18.00;10.10;;;;;;;21.42;66.31;98900.98;78100;1300;3028415;-72
2023/07/23 05:25:29;;;;;;;21.10;9.40;;;;;;;21.39;67.05;98893.64;79293;1295;3013373;-65
2023/07/23 05:27:56;;;;;;;28.90;12.80;;;;;;;21.28;66.37;98907.71;79388;1301;3011795;-69
2023/07/23 05:30:23;;;;;;;22.30;11.40;;;;;;;21.19;67.61;98894.30;78216;1299;3025151;-68
2023/07/23 05:32:50;;;;;;;16.10;10.50;;;;;;;21.04;68.50;98906.69;79463;1295;3018825;-70
2023/07/23 05:35:17;;;;;;;20.10;10.30;;;;;;;20.98;69.11;98900.37;79345;1301;3011556;-78
2023/07/23 05:37:44;;;;;;;16.00;10.80;;;;;;;20.97;69.45;98902.25;78111;1301;3028279;-71
2023/07/23 05:40:11;;;;;;;17.60;11.00;;;;;;;20.93;69.78;98913.42;79434;1301;3013603;-68
2023/07/23 05:42:37;;;;;;;15.00;9.80;;;;;;;21.02;69.78;98913.15;79335;1295;3011839;-69
2023/07/23 05:45:06;;;;;;;14.50;8.40;;;;;;;21.09;69.94;98910.34;78138;1301;3027345;-68
2023/07/23 05:47:34;;;;;;;14.60;7.90;;;;;;;21.53;67.79;98907.10;80316;1295;3011313;-67
2023/07/23 05:50:01;;;;;;;21.10;10.10;;;;;;;21.75;66.04;98917.60;79334;1294;3012683;-71
2023/07/23 05:52:29;;;;;;;16.10;9.60;;;;;;;21.88;65.72;98912.96;78061;1301;3052301;-66
2023/07/23 05:54:55;;;;;;;20.10;11.10;;;;;;;21.81;65.58;98907.55;79303;1300;3020437;-72
2023/07/23 05:57:22;;;;;;;20.00;11.50;;;;;;;21.73;66.25;98908.11;79223;1301;3011431;-65
2023/07/23 05:59:49;;;;;;;19.50;11.30;;;;;;;21.69;66.68;98909.12;78151;1295;3026793;-69
2023/07/23 06:02:16;;;;;;;19.10;10.30;;;;;;;21.51;67.69;98912.52;79253;1295;3012841;-73
2023/07/23 06:04:42;;;;;;;19.50;10.60;;;;;;;21.50;68.32;98916.27;79259;1300;3011479;-71
2023/07/23 06:07:10;;;;;;;17.00;10.20;;;;;;;21.49;68.71;98916.02;78157;1295;3026442;-71
2023/07/23 06:09:37;;;;;;;15.90;9.20;;;;;;;21.56;68.77;98915.16;79407;1301;3011833;-64
2023/07/23 06:12:03;;;;;;;15.20;9.60;;;;;;;21.64;67.94;98917.13;79387;1301;3011805;-67
2023/07/23 06:14:31;;;;;;;16.30;9.40;;;;;;;21.67;68.18;98918.20;78110;1295;3027432;-69
2023/07/23 06:16:58;;;;;;;17.90;10.10;;;;;;;21.72;68.27;98922.37;79289;1296;3013714;-67
2023/07/23 06:19:24;;;;;;;10.70;6.90;;;;;;;21.88;68.10;98926.30;79311;1295;3011623;-69
2023/07/23 06:21:52;;;;;;;10.00;7.20;;;;;;;22.40;66.95;98928.59;77984;1296;3026752;-67
2023/07/23 06:24:19;;;;;;;10.40;7.20;;;;;;;22.79;65.54;98930.41;79341;1301;3019037;-69
2023/07/23 06:26:45;;;;;;;13.40;7.70;;;;;;;22.79;65.71;98933.39;79263;1301;3011816;-67
2023/07/23 06:29:13;;;;;;;11.10;8.20;;;;;;;22.62;66.45;98935.43;78014;1301;3025747;-69
2023/07/23 06:31:39;;;;;;;10.30;8.00;;;;;;;22.43;67.25;98934.98;79205;1295;3013645;-72
2023/07/23 06:34:07;;;;;;;15.80;8.20;;;;;;;22.42;67.95;98931.93;79289;1295;3013470;-68
2023/07/23 06:36:35;;;;;;;11.20;8.80;;;;;;;22.32;68.49;98943.33;77982;1296;3053370;-66
2023/07/23 06:39:01;;;;;;;11.60;8.70;;;;;;;22.20;68.32;98939.17;79302;1297;3013353;-71
2023/07/23 06:41:28;;;;;;;13.50;10.50;;;;;;;22.08;69.45;98941.45;79313;1301;3011430;-71
2023/07/23 06:43:56;;;;;;;15.50;10.70;;;;;;;21.99;70.37;98946.20;78097;1299;3027012;-73
2023/07/23 06:46:23;;;;;;;16.20;11.60;;;;;;;22.06;70.90;98946.67;79407;1295;3018985;-73
2023/07/23 06:48:49;;;;;;;12.60;8.80;;;;;;;22.09;71.32;98954.41;79306;1300;3012856;-69
2023/07/23 06:51:17;;;;;;;15.80;10.30;;;;;;;22.42;69.52;98964.86;78095;1301;3026355;-70
2023/07/23 06:53:44;;;;;;;19.20;10.90;;;;;;;22.70;68.35;98955.32;79342;1298;3013282;-71
2023/07/23 06:56:13;;;;;;;17.00;12.20;;;;;;;22.45;69.02;98964.23;79273;1301;3011343;-70
2023/07/23 06:58:40;;;;;;;17.70;12.00;;;;;;;22.24;70.19;98954.21;78074;1301;3069523;-65
2023/07/23 07:01:08;;;;;;;16.20;12.20;;;;;;;22.23;70.09;98958.65;79380;1295;3013380;-66
2023/07/23 07:03:35;;;;;;;21.30;13.10;;;;;;;21.87;70.98;98969.52;79281;1295;3011763;-74
2023/07/23 07:06:04;;;;;;;16.10;13.00;;;;;;;21.59;72.00;98969.16;78088;1295;3051767;-70
2023/07/23 07:08:30;;;;;;;16.20;12.40;;;;;;;21.46;72.85;98964.98;79402;1298;3013142;-68
2023/07/23 07:10:58;;;;;;;18.20;12.10;;;;;;;21.26;73.60;98974.67;79381;1301;3011671;-65
2023/07/23 07:13:27;;;;;;;12.00;9.00;;;;;;;21.50;72.54;98977.16;78124;1301;3069485;-71
2023/07/23 07:15:53;;;;;;;15.10;10.80;;;;;;;21.91;71.03;98979.96;79409;1295;3013184;-73
2023/07/23 07:18:20;;;;;;;18.90;13.00;;;;;;;22.23;69.63;98975.02;79327;1295;3013138;-69
2023/07/23 07:20:55;;;;;;;19.20;14.60;;;;;;;22.03;69.81;98982.14;77992;1300;3054819;-67
2023/07/23 07:23:25;;;;;;;21.60;15.70;;;;;;;22.09;70.01;98978.55;78743;1295;3012955;-70
2023/07/23 07:25:51;;;;;;;21.90;14.50;;;;;;;22.09;69.86;98984.83;79368;1298;3013040;-69
2023/07/23 07:28:18;;;;;;;21.40;13.50;;;;;;;21.94;70.26;98976.92;79336;1304;3011705;-68
2023/07/23 07:30:45;;;;;;;18.30;13.00;;;;;;;21.94;70.47;98976.22;78175;1295;3071165;-66
2023/07/23 07:33:12;;;;;;;18.00;12.30;;;;;;;21.94;70.35;98979.31;79471;1298;3013202;-64
2023/07/23 07:35:39;;;;;;;18.50;12.40;;;;;;;22.08;69.50;98973.70;79383;1295;3011314;-71
2023/07/23 07:38:06;;;;;;;17.00;11.30;;;;;;;21.86;70.25;98979.46;78138;1299;3028047;-64
2023/07/23 07:40:33;;;;;;;16.60;11.10;;;;;;;21.78;70.39;98982.68;79432;1307;3012955;-67
2023/07/23 07:42:59;;;;;;;16.30;10.50;;;;;;;21.84;70.18;98980.54;79456;1301;3011657;-67
2023/07/23 07:45:27;;;;;;;11.20;7.80;;;;;;;21.84;69.81;98990.23;78306;1296;3028824;-69
2023/07/23 07:47:54;;;;;;;11.30;7.20;;;;;;;22.27;68.83;98991.50;79450;1295;3020571;-72
2023/07/23 07:50:20;;;;;;;17.00;9.30;;;;;;;22.40;67.86;98992.79;79494;1298;3011507;-67
2023/07/23 07:52:48;;;;;;;12.30;8.70;;;;;;;22.33;67.61;99006.69;78188;1300;3026411;-67
2023/07/23 07:55:15;;;;;;;8.00;7.10;;;;;;;22.21;68.09;98997.84;79340;1300;3018600;-67
2023/07/23 07:57:42;;;;;;;12.00;7.90;;;;;;;21.99;68.29;99003.06;79489;1300;3011649;-68
2023/07/23 08:00:10;;;;;;;11.00;8.80;;;;;;;21.85;68.76;99004.70;78160;1298;3025478;-72
2023/07/23 08:02:38;;;;;;;21.50;13.00;;;;;;;21.56;69.91;99012.92;79637;1295;3015132;-68
2023/07/23 08:05:05;;;;;;;16.60;11.00;;;;;;;21.43;70.35;99011.12;79336;1298;3011610;-67
2023/07/23 08:07:34;;;;;;;21.10;10.70;;;;;;;21.46;70.44;99015.02;78181;1295;3052721;-69
2023/07/23 08:10:00;;;;;;;10.10;7.40;;;;;;;21.52;70.16;99011.63;79511;1296;3013503;-67
2023/07/23 08:12:27;;;;;;;10.10;7.60;;;;;;;21.38;70.15;99028.55;79481;1298;3011804;-65
2023/07/23 08:14:55;;;;;;;11.70;9.30;;;;;;;21.38;70.34;99026.61;78263;1298;3069016;-70
2023/07/23 08:17:22;;;;;;;11.90;9.20;;;;;;;21.38;70.60;99031.62;79502;1298;3013476;-68
2023/07/23 08:19:49;;;;;;;10.10;6.30;;;;;;;21.44;70.97;99028.15;79537;1298;3011566;-66
2023/07/23 08:22:17;;;;;;;11.30;6.10;;;;;;;21.94;69.33;99024.92;78268;1295;3026675;-66
2023/07/23 08:24:44;;;;;;;9.50;6.60;;;;;;;22.11;68.55;99027.22;79536;1300;3013041;-69
2023/07/23 08:27:10;;;;;;;9.10;7.20;;;;;;;22.23;67.90;99025.89;77288;1300;3193249;-64
2023/07/23 08:29:39;;;;;;;8.50;5.50;;;;;;;22.28;67.74;99025.12;78894;1298;3011764;-69
2023/07/23 08:32:08;;;;;;;7.10;6.40;;;;;;;22.19;67.62;99026.78;79335;1298;3013062;-70
2023/07/23 08:34:34;;;;;;;6.40;5.70;;;;;;;22.31;67.07;99024.71;79528;1295;3011589;-67
2023/07/23 08:37:03;;;;;;;9.80;6.50;;;;;;;22.26;67.10;99024.42;78161;1298;3053163;-66
2023/07/23 08:39:34;;;;;;;7.80;6.10;;;;;;;22.36;66.66;99017.08;79426;1295;3013374;-70
2023/07/23 08:42:17;;;;;;;8.50;6.30;;;;;;;22.34;66.24;99018.85;78147;1298;3053843;-69
2023/07/23 08:45:22;;;;;;;7.50;6.70;;;;;;;22.04;67.00;99016.40;77957;1298;3053991;-68
2023/07/23 08:47:50;;;;;;;7.90;6.70;;;;;;;21.95;67.24;99015.13;78150;1297;3068312;-66
2023/07/23 08:50:16;;;;;;;7.30;6.50;;;;;;;21.81;67.65;99012.27;79405;1303;3019302;-73
2023/07/23 08:52:43;;;;;;;9.40;7.60;;;;;;;21.78;67.40;99025.30;79375;1302;3011575;-66
2023/07/23 08:55:11;;;;;;;7.70;6.90;;;;;;;21.79;67.71;99016.94;78193;1298;3026094;-69
2023/07/23 08:57:37;;;;;;;10.40;6.70;;;;;;;21.85;67.17;99011.77;79319;1297;3013238;-70
2023/07/23 09:00:06;;;;;;;10.30;6.70;;;;;;;21.82;67.32;99018.06;79450;1302;3011593;-69
2023/07/23 09:02:34;;;;;;;7.80;6.50;;;;;;;21.88;66.61;99011.87;78443;1296;3069062;-66
2023/07/23 09:05:01;;;;;;;8.30;7.10;;;;;;;22.08;65.77;99018.83;79427;1295;3013736;-71
2023/07/23 09:07:27;;;;;;;8.10;6.70;;;;;;;22.07;65.02;99024.14;79590;1296;3011582;-73
2023/07/23 09:09:55;;;;;;;8.50;6.40;;;;;;;22.02;64.53;99028.91;78150;1298;3028208;-67
2023/07/23 09:12:22;;;;;;;7.60;6.40;;;;;;;22.20;63.78;99040.98;79555;1295;3012953;-68
2023/07/23 09:14:48;;;;;;;7.80;6.30;;;;;;;21.92;63.95;99049.00;79473;1299;3013676;-71
2023/07/23 09:17:17;;;;;;;8.10;7.00;;;;;;;21.96;64.52;99050.16;78238;1300;3025844;-67
2023/07/23 09:19:43;;;;;;;9.10;7.40;;;;;;;22.04;64.76;99039.48;79408;1295;3012881;-69
2023/07/23 09:22:10;;;;;;;10.50;7.50;;;;;;;22.17;63.99;99039.75;79466;1295;3011926;-67
2023/07/23 09:24:38;;;;;;;14.10;7.70;;;;;;;22.46;63.17;99024.29;78139;1296;3053458;-70
2023/07/23 09:27:08;;;;;;;9.60;7.70;;;;;;;22.80;62.56;99027.46;79374;1300;3018919;-67
2023/07/23 09:29:38;;;;;;;9.30;7.30;;;;;;;22.80;61.53;99034.23;78771;1301;3012404;-66
2023/07/23 09:32:21;;;;;;;8.10;6.70;;;;;;;22.59;61.42;99043.65;79528;1300;3013299;-71
2023/07/23 09:34:48;;;;;;;7.60;6.80;;;;;;;22.42;61.89;99031.83;78179;1295;3051615;-67
2023/07/23 09:37:16;;;;;;;12.30;7.00;;;;;;;22.49;61.69;99026.38;79394;1297;3011741;-69
2023/07/23 09:39:42;;;;;;;10.80;7.80;;;;;;;22.44;61.86;99019.36;79409;1299;3011814;-73
2023/07/23 09:42:10;;;;;;;12.00;7.70;;;;;;;22.64;61.82;99011.20;78545;1298;3050231;-67
2023/07/23 09:44:40;;;;;;;11.50;8.80;;;;;;;22.76;61.74;99017.64;79714;1295;3013435;-70
2023/07/23 09:47:09;;;;;;;12.80;8.90;;;;;;;23.17;60.76;99013.75;79085;1295;3012994;-67
2023/07/23 09:49:36;;;;;;;12.10;8.70;;;;;;;23.27;60.14;99017.11;79728;1297;3013298;-71
2023/07/23 09:52:07;;;;;;;9.10;7.00;;;;;;;23.16;60.08;99023.98;79617;1295;3011855;-73
2023/07/23 09:54:35;;;;;;;12.90;8.80;;;;;;;22.74;61.24;99020.58;78409;1293;3049741;-62
2023/07/23 09:57:02;;;;;;;8.90;7.40;;;;;;;22.89;60.69;99023.60;79687;1294;3014051;-73
2023/07/23 09:59:30;;;;;;;11.70;9.20;;;;;;;23.12;59.93;99013.39;79628;1295;3011717;-70
2023/07/23 10:01:58;;;;;;;15.10;9.80;;;;;;;23.20;59.83;99019.20;78404;1298;3052252;-66
2023/07/23 10:04:25;;;;;;;10.60;8.90;;;;;;;23.41;59.44;99017.61;79681;1295;3012763;-64
2023/07/23 10:06:51;;;;;;;13.40;7.90;;;;;;;23.61;58.86;99019.36;79477;1295;3011899;-64
2023/07/23 10:09:19;;;;;;;9.70;8.50;;;;;;;23.55;58.87;99036.46;78392;1295;3026181;-68
2023/07/23 10:11:45;;;;;;;7.50;6.70;;;;;;;23.23;59.03;99043.14;79663;1295;3012897;-71
2023/07/23 10:14:12;;;;;;;10.20;7.20;;;;;;;22.94;59.57;99052.85;79634;1298;3011714;-68
2023/07/23 10:16:41;;;;;;;11.50;6.90;;;;;;;23.24;58.31;99046.08;78439;1297;3025905;-66
2023/07/23 10:19:08;;;;;;;10.50;7.20;;;;;;;23.73;57.37;99042.70;79679;1294;3013020;-67
2023/07/23 10:21:35;;;;;;;10.10;6.80;;;;;;;23.75;57.25;99063.88;79481;1301;3011647;-70
2023/07/23 10:24:03;;;;;;;9.10;6.30;;;;;;;23.82;57.12;99055.14;78392;1297;3049247;-67
2023/07/23 10:26:47;;;;;;;8.70;6.70;;;;;;;23.92;56.99;99056.36;79504;1295;3013966;-68
2023/07/23 10:29:18;;;;;;;8.10;6.70;;;;;;;23.73;57.64;99053.21;78342;1298;3053633;-70
2023/07/23 10:31:45;;;;;;;11.00;6.50;;;;;;;23.91;57.74;99052.45;79625;1297;3011389;-66
2023/07/23 10:34:22;;;;;;;6.30;5.60;;;;;;;23.99;56.77;99064.55;78466;1295;3025825;-67
2023/07/23 10:37:09;;;;;;;7.60;5.90;;;;;;;24.01;56.04;99062.59;78249;1294;3052347;-68
2023/07/23 10:39:40;;;;;;;7.60;6.60;;;;;;;23.97;55.94;99054.02;78394;1297;3056650;-64
2023/07/23 10:42:07;;;;;;;9.20;6.60;;;;;;;23.96;56.32;99043.09;79734;1297;3011501;-70
2023/07/23 10:44:39;;;;;;;8.00;6.60;;;;;;;24.13;56.02;99036.00;78377;1297;3026412;-69
2023/07/23 10:47:31;;;;;;;9.00;7.80;;;;;;;24.28;55.95;99030.77;79494;1295;3013090;-68
2023/07/23 10:50:12;;;;;;;11.30;7.80;;;;;;;24.25;55.95;99033.06;78378;1294;3053263;-68
2023/07/23 10:52:44;;;;;;;8.60;7.10;;;;;;;23.90;57.11;99034.49;78416;1297;3052755;-68
2023/07/23 10:55:11;;;;;;;10.30;7.80;;;;;;;23.92;56.59;99035.05;79607;1294;3012847;-68
2023/07/23 10:57:41;;;;;;;9.80;6.60;;;;;;;23.71;57.04;99042.08;78393;1297;3028467;-69
2023/07/23 11:00:20;;;;;;;6.80;5.50;;;;;;;23.72;57.02;99049.98;79645;1294;3013049;-66
2023/07/23 11:02:49;;;;;;;12.20;7.40;;;;;;;24.06;56.14;99044.40;78067;1298;3049520;-68
2023/07/23 11:05:15;;;;;;;8.20;6.60;;;;;;;24.02;56.62;99044.73;79518;1294;3012868;-67
2023/07/23 11:07:42;;;;;;;9.30;6.80;;;;;;;24.03;56.83;99039.77;79635;1308;3013261;-66
2023/07/23 11:10:20;;;;;;;8.50;6.80;;;;;;;23.65;57.51;99042.59;78282;1297;3028544;-67
2023/07/23 11:12:47;;;;;;;14.90;6.50;;;;;;;23.65;57.51;99049.40;78412;1297;3069625;-65
2023/07/23 11:15:15;;;;;;;8.40;6.10;;;;;;;23.65;57.43;99042.77;79450;1298;3014971;-66